Login

andryx90
1 activity; - Last training unit 06/07/2013
06/07/2013 Show to everybody all 16 38.73 903 02:12:21 17.56 Km\h
05/07/2013 Show to everybody all 15 31.89 817 01:46:37 17.95 Km\h
03/07/2013 Show to everybody all 14 23.23 1223 02:58:30 7.81 Km\h
02/07/2013 Show to everybody all 13 43.73 903 02:35:36 16.86 Km\h
29/06/2013 Show to everybody all 12 52.5 1106 03:40:52 14.26 Km\h
26/06/2013 Show to everybody all 11 38.24 994 02:17:23 16.7 Km\h
22/06/2013 Show to everybody Sudtirol Sellaronda Hero 2013 84Km 4300m dis 85.59 3561 06:23:48 13.38 Km\h
21/06/2013 Show to everybody all 9 24.68 1079 01:25:41 17.28 Km\h
19/06/2013 Show to everybody all 10 36.36 907 02:26:44 14.87 Km\h
14/06/2013 Show to everybody all 8 Mezzavalle 25.83 578 01:31:07 17.01 Km\h
13/06/2013 Show to everybody all 7 35.01 65 01:59:06 17.64 Km\h
11/06/2013 Show to everybody all 6 30.12 747 01:41:42 17.77 Km\h
09/06/2013 Show to everybody all 5 34.86 1069 03:08:37 11.09 Km\h
08/06/2013 Show to everybody all 4 34.7 732 02:11:38 15.82 Km\h
05/06/2013 Show to everybody all 3 74.46 2276 04:59:30 14.92 Km\h
03/06/2013 Show to everybody all 2 36.06 859 02:26:56 14.73 Km\h
01/06/2013 Show to everybody all 43.86 1304 03:06:06 14.14 Km\h
31/05/2013 Show to everybody all 35.8 897 02:19:39 15.38 Km\h
29/05/2013 Show to everybody all 40.85 1123 03:01:55 13.47 Km\h
26/05/2013 Show to everybody ALL 42.28 1195 02:53:12 14.65 Km\h
25/05/2013 Show to everybody all 34.6 786 02:10:31 15.91 Km\h
24/05/2013 Show to everybody all 37.75 911 02:21:52 15.97 Km\h
22/05/2013 Show to everybody all 40.11 1016 02:34:20 15.59 Km\h
18/05/2013 Show to everybody all 74.05 2963 04:57:59 14.91 Km\h
14/05/2013 Show to everybody all 28.64 830 02:13:22 12.89 Km\h
12/05/2013 Show to everybody all 37.84 999 02:41:40 14.04 Km\h
11/05/2013 Show to everybody ALL 50.21 1358 03:55:17 12.81 Km\h
09/05/2013 Show to everybody all 43.58 1320 03:33:57 12.22 Km\h
08/05/2013 Show to everybody all 42.86 1090 02:37:30 16.33 Km\h
07/05/2013 Show to everybody all 26.26 565 01:26:31 18.21 Km\h
04/05/2013 Show to everybody all 44.32 1238 03:24:22 13.01 Km\h
24/04/2013 Show to everybody all 43.33 1051 03:00:25 14.41 Km\h
21/04/2013 Show to everybody Granfondo Fabriano 21 Aprile 43.04 1323 03:17:25 13.08 Km\h
17/04/2013 Show to everybody 17 Aprile prova gara GrandFondo Fabriano 38.85 1232 03:09:04 12.33 Km\h
15/04/2013 Show to everybody 15 Aprile 2013 1°parte 22.78 535 01:36:16 14.2 Km\h
13/04/2013 Show to everybody Strada 97.95 159 03:31:17 27.82 Km\h
10/04/2013 Show to everybody 10 Apr 2013 da sirolo 31.23 851 02:44:38 11.38 Km\h
09/04/2013 Show to everybody 9 Aprile 2013 Start Casa 30.75 691 02:05:35 14.69 Km\h
24/11/2012 Show to everybody ALL 2 32.96 912 02:20:03 14.12 Km\h
11/11/2012 Show to everybody All 3 39.96 1100 03:04:43 12.98 Km\h
10/11/2012 Show to everybody all 4 22.69 820 02:19:35 9.75 Km\h
08/11/2012 Show to everybody ALL 19.77 695 01:38:53 12 Km\h
Training units 0
Kilometers 0 Km
Vertical gain 0 mt
Hours of riding 00:00:00
Average speed 0 Km/h
average HR 131
Points 71
Live Tracking »

F29 0 Km

 
If you stop following this users you will not be able to compare your trainings with his

Now you follow this users and you can compare your trainings


MTB-Forum.it | 2012-2019 Training Camp v.1.6 rev 05